aviador You're here:

KMLB Decoded Metar

MELBOURNE in FL, USA
Report Time2018-05-25 08:53:00
UTC Time2018-05-25 09:10:10
Flight Rules vfr VFR
Wind130° at 05 kt
W.Decomp.*RWY 09: 3.4 kt HW 3.7 kt RCW
RWY 05: 0.3 kt HW 5.0 kt RCW
W.Rank130° ranks 11
Current wind is below 130° avg. (8.8)
Visibility9999 m
Phenomena:N/A
Clouds:Few 013 Hf
Expected CloudBase > 1,200 ft AGL from Temp-Dew spread
CeilingNone
Temp26°C (ISA +11)
Dew Point23°C (84% RH)
QNH1016 hPa
Density Alt1,585 ft
Elevation36 ft
Report Wrong Elevation
Raw Report
METAR KMLB 250853Z AUTO 13005KT 10SM FEW013 26/23 A3000 RMK AO2 SLP159
T02560228 58013=

Extra information for KMLB:More info

Metar Taf Metar & Taf Last 4 Metars F.Rules Stats Wind Profile Meteogram Temp Stats Airport Information Weather charts Add Link Nearby VenuesMetar ALERT Operation Metar Decoded Social comments

AIRNAV info for KMLB